Map

Track Data

SID SEASON NUMBER BASIN SUBBASIN NAME ISO_TIME NATURE LAT LON WMO_WIND WMO_PRES WMO_AGENCY TRACK_TYPE DIST2LAND LANDFALL IFLAG USA_AGENCY USA_ATCF_ID USA_LAT USA_LON USA_RECORD USA_STATUS USA_WIND USA_PRES USA_SSHS USA_R34_NE USA_R34_SE USA_R34_SW USA_R34_NW USA_R50_NE USA_R50_SE USA_R50_SW USA_R50_NW USA_R64_NE USA_R64_SE USA_R64_SW USA_R64_NW USA_POCI USA_ROCI USA_RMW USA_EYE TOKYO_LAT TOKYO_LON TOKYO_GRADE TOKYO_WIND TOKYO_PRES TOKYO_R50_DIR TOKYO_R50_LONG TOKYO_R50_SHORT TOKYO_R30_DIR TOKYO_R30_LONG TOKYO_R30_SHORT TOKYO_LAND CMA_LAT CMA_LON CMA_CAT CMA_WIND CMA_PRES HKO_LAT HKO_LON HKO_CAT HKO_WIND HKO_PRES NEWDELHI_LAT NEWDELHI_LON NEWDELHI_GRADE NEWDELHI_WIND NEWDELHI_PRES NEWDELHI_CI NEWDELHI_DP NEWDELHI_POCI REUNION_LAT REUNION_LON REUNION_TYPE REUNION_WIND REUNION_PRES REUNION_TNUM REUNION_CI REUNION_RMW REUNION_R34_NE REUNION_R34_SE REUNION_R34_SW REUNION_R34_NW REUNION_R50_NE REUNION_R50_SE REUNION_R50_SW REUNION_R50_NW REUNION_R64_NE REUNION_R64_SE REUNION_R64_SW REUNION_R64_NW BOM_LAT BOM_LON BOM_TYPE BOM_WIND BOM_PRES BOM_TNUM BOM_CI BOM_RMW BOM_R34_NE BOM_R34_SE BOM_R34_SW BOM_R34_NW BOM_R50_NE BOM_R50_SE BOM_R50_SW BOM_R50_NW BOM_R64_NE BOM_R64_SE BOM_R64_SW BOM_R64_NW BOM_ROCI BOM_POCI BOM_EYE BOM_POS_METHOD BOM_PRES_METHOD NADI_LAT NADI_LON NADI_CAT NADI_WIND NADI_PRES WELLINGTON_LAT WELLINGTON_LON WELLINGTON_WIND WELLINGTON_PRES DS824_LAT DS824_LON DS824_STAGE DS824_WIND DS824_PRES TD9636_LAT TD9636_LON TD9636_STAGE TD9636_WIND TD9636_PRES TD9635_LAT TD9635_LON TD9635_WIND TD9635_PRES TD9635_ROCI NEUMANN_LAT NEUMANN_LON NEUMANN_CLASS NEUMANN_WIND NEUMANN_PRES MLC_LAT MLC_LON MLC_CLASS MLC_WIND MLC_PRES USA_GUST BOM_GUST BOM_GUST_PER REUNION_GUST REUNION_GUST_PER USA_SEAHGT USA_SEARAD_NE USA_SEARAD_SE USA_SEARAD_SW USA_SEARAD_NW STORM_SPEED STORM_DIR
2020323N15248 2020 102 EP MM POLO 2020-11-17 12:00:00 DS 14.7000 -111.900 PROVISIONAL 896 896 O_____________ nhc_working_bt EP212020 14.7000 -111.900 LO 25 1008 -3 1010 150 70 10 286
2020323N15248 2020 102 EP MM POLO 2020-11-17 15:00:00 DS 14.8378 -112.410 PROVISIONAL 932 931 P_____________ EP212020 14.8378 -112.410 LO 27 1007 -3 1010 150 65 10 288
2020323N15248 2020 102 EP MM POLO 2020-11-17 18:00:00 TS 15.0000 -112.860 PROVISIONAL 934 924 O_____________ nhc_working_bt EP212020 15.0000 -112.900 TD 30 1007 -1 1010 150 60 40 10 293
2020323N15248 2020 102 EP MM POLO 2020-11-17 21:00:00 TS 15.2138 -113.331 PROVISIONAL 928 922 P_____________ EP212020 15.1999 -113.358 TD 32 1006 -1 1010 150 45 10 294
2020323N15248 2020 102 EP MM POLO 2020-11-18 00:00:00 TS 15.4000 -113.800 PROVISIONAL 928 928 O_____________ nhc_working_bt EP212020 15.4000 -113.800 TS 35 1006 0 30 1010 150 30 40 10 288
2020323N15248 2020 102 EP MM POLO 2020-11-18 03:00:00 TS 15.5141 -114.265 PROVISIONAL 942 937 P_____________ EP212020 15.5574 -114.250 TS 35 1005 0 30 1010 150 30 9 285
2020323N15248 2020 102 EP MM POLO 2020-11-18 06:00:00 TS 15.6333 -114.700 PROVISIONAL 953 944 O_____________ nhc_working_bt EP212020 15.7000 -114.700 TS 35 1005 0 30 1010 150 30 40 8 293
2020323N15248 2020 102 EP MM POLO 2020-11-18 09:00:00 TS 15.8422 -115.058 PROVISIONAL 957 944 P_____________ EP212020 15.8423 -115.135 TS 37 1004 0 30 1010 135 30 9 300
2020323N15248 2020 102 EP MM POLO 2020-11-18 12:00:00 TS 16.0667 -115.467 PROVISIONAL 954 954 O_____________ nhc_working_bt EP212020 16.0000 -115.600 TS 40 1004 0 30 20 1010 120 30 50 10 292
2020323N15248 2020 102 EP MM POLO 2020-11-18 15:00:00 TS 16.2360 -116.058 PROVISIONAL 984 976 P_____________ EP212020 16.1925 -116.135 TS 40 1004 0 30 20 1010 120 30 12 286
2020323N15248 2020 102 EP MM POLO 2020-11-18 18:00:00 TS 16.4000 -116.700 PROVISIONAL 1009 1009 O_____________ nhc_working_bt EP212020 16.4000 -116.700 TS 40 1004 0 30 20 1010 120 30 50 12 288
2020323N15248 2020 102 EP MM POLO 2020-11-18 21:00:00 TS 16.6098 -117.267 PROVISIONAL 1038 1038 P_____________ EP212020 16.6149 -117.257 TS 40 1004 0 30 20 1010 120 25 11 291
2020323N15248 2020 102 EP MM POLO 2020-11-19 00:00:00 TS 16.8000 -117.800 PROVISIONAL 1062 1062 O_____________ nhc_working_bt EP212020 16.8000 -117.800 TS 40 1004 0 30 20 1010 120 20 50 12 30 30 10 288
2020323N15248 2020 102 EP MM POLO 2020-11-19 03:00:00 TS 16.9248 -118.308 PROVISIONAL 1084 1081 P_____________ EP212020 16.9298 -118.308 TS 37 1004 0 30 20 1010 120 25 12 30 30 10 282
2020323N15248 2020 102 EP MM POLO 2020-11-19 06:00:00 TS 17.0000 -118.800 PROVISIONAL 1106 1106 O_____________ nhc_working_bt EP212020 17.0000 -118.800 TS 35 1005 0 30 20 1010 120 30 45 12 30 30 10 278
2020323N15248 2020 102 EP MM POLO 2020-11-19 09:00:00 TS 17.0557 -119.300 PROVISIONAL 1131 1131 P_____________ EP212020 17.0224 -119.300 TS 32 1006 -1 1010 105 30 10 274
2020323N15248 2020 102 EP MM POLO 2020-11-19 12:00:00 TS 17.0600 -119.800 PROVISIONAL 1166 1166 O_____________ nhc_working_bt EP212020 17.0000 -119.800 TD 30 1007 -1 1011 90 30 40 10 267
2020323N15248 2020 102 EP MM POLO 2020-11-19 15:00:00 TS 17.0126 -120.304 PROVISIONAL 1210 1210 P_____________ EP212020 16.9574 -120.308 TD 30 1007 -1 1011 90 30 10 262
2020323N15248 2020 102 EP MM POLO 2020-11-19 18:00:00 DS 16.9333 -120.800 PROVISIONAL 1255 1255 O_____________ nhc_working_bt EP212020 16.9000 -120.800 LO 30 1007 -3 1011 90 30 40 9 260
2020323N15248 2020 102 EP MM POLO 2020-11-19 21:00:00 DS 16.8499 -121.257 PROVISIONAL 1300 1300 P_____________ EP212020 16.8499 -121.257 LO 30 1007 -3 1011 90 30 9 261
2020323N15248 2020 102 EP MM POLO 2020-11-20 00:00:00 DS 16.8000 -121.700 PROVISIONAL 1331 1331 O_____________ nhc_working_bt EP212020 16.8000 -121.700 LO 30 1008 -3 1011 90 30 8 263
2020323N15248 2020 102 EP MM POLO 2020-11-20 03:00:00 DS 16.7423 -122.135 PROVISIONAL 1370 1370 P_____________ EP212020 16.7423 -122.135 LO 30 1008 -3 1011 90 30 9 263
2020323N15248 2020 102 EP MM POLO 2020-11-20 06:00:00 DS 16.7000 -122.600 PROVISIONAL 1409 1409 O_____________ nhc_working_bt EP212020 16.7000 -122.600 LO 30 1008 -3 1011 90 30 10 267
2020323N15248 2020 102 EP MM POLO 2020-11-20 09:00:00 DS 16.7000 -123.135 PROVISIONAL 1449 1449 P_____________ EP212020 16.7000 -123.135 LO 30 1008 -3 1011 90 30 11 270
2020323N15248 2020 102 EP MM POLO 2020-11-20 12:00:00 DS 16.7000 -123.700 PROVISIONAL 1498 1498 O_____________ nhc_working_bt EP212020 16.7000 -123.700 LO 30 1009 -3 1011 90 30 11 268
2020323N15248 2020 102 EP MM POLO 2020-11-20 15:00:00 DS 16.6648 -124.242 PROVISIONAL 1540 1540 P_____________ EP212020 16.6648 -124.242 LO 27 1009 -3 1011 90 30 11 265
2020323N15248 2020 102 EP MM POLO 2020-11-20 18:00:00 DS 16.6000 -124.800 PROVISIONAL 1596 1596 O_____________ nhc_working_bt EP212020 16.6000 -124.800 LO 25 1010 -3 1011 90 30 11 262
2020323N15248 2020 102 EP MM POLO 2020-11-20 21:00:00 DS 16.5079 -125.390 PROVISIONAL 1645 1645 P_____________ EP212020 16.5079 -125.390 LO 25 1010 -3 1011 90 30 12 260
2020323N15248 2020 102 EP MM POLO 2020-11-21 00:00:00 DS 16.4000 -126.000 PROVISIONAL 1695 O_____________ nhc_working_bt EP212020 16.4000 -126.000 LO 25 1010 -3 1011 90 30 12 260

About IBTrACS Database

This database is a web-friendly format of International Best Track Archive for Climate Stewardship (IBTrACS), a global best track data archive curated by NOAA dating back to 1842.

Updated: 2021-05-04